Sonic Adventure (DX): Time Rankings

Records: Times | Rings | Scores | Races | Bosses | Freestyle
Leaders: Times | Rings | Scores | Races | Bosses | Freestyle | Overall
Rank Player Percent Points Date
1 Gamepro011 99.3% 39 12-15-18
2 Sonicspeedruner 98.2% 101 12-15-18
3 Dashjump 94.4% 319 12-15-18
4 Jawzun 94.4% 322 12-15-18
5 DarkPolarNight 93.5% 372 12-15-18
6 drminus 91.3% 498 12-15-18
7 F-Man 91.2% 504 12-15-18
8 THC98 90.8% 528 12-15-18
9 ike6252 88.8% 642 12-15-18
10 Avento128bits 88.4% 663 12-15-18
11 francisco 88.2% 675 12-15-18
12 ethmar 87.7% 706 12-15-18
13 DarkspinesSonic 87.6% 709 12-15-18
14 Marth 87.6% 712 12-15-18
15 frankoredstrato 86.2% 794 12-15-18
16 TheRealShadnic 84.6% 886 12-15-18
17 chainchumper 84.4% 895 12-15-18
18 Paragod 83.5% 950 12-15-18
19 HyperSonic7701 83.2% 965 12-15-18
20 Calfd 82.9% 985 12-15-18
21 Coolfansonic 80.1% 1143 12-15-18
22 InferSaime 80.0% 1148 12-15-18
23 Stefan 78.7% 1225 12-15-18
24 xXMegaManXx 78.6% 1232 12-15-18
25 PfoSonic 78.2% 1252 12-15-18
26 bertin 76.4% 1356 12-15-18
27 yoshifan 75.9% 1384 12-15-18
28 Dave Cramer 74.5% 1469 12-15-18
29 RPGnutter 74.1% 1488 12-15-18
30 sonicam 72.5% 1582 12-15-18
31 Cybrax 72.3% 1596 12-15-18
32 Ring Rush 69.6% 1750 12-15-18
33 Nim 69.4% 1759 12-15-18
34 mike89 68.9% 1791 12-15-18
35 NintenDan 68.6% 1808 12-15-18
36 a_moustache 67.3% 1881 12-15-18
37 Dekuboy 65.4% 1991 12-15-18
38 chaos shadow 65.3% 1994 12-15-18
39 SkyLights 65.1% 2008 12-15-18
40 Combo 63.7% 2087 12-15-18
41 Niczur 62.7% 2148 12-15-18
42 SADXTryHard 61.5% 2213 12-15-18
43 P1 Pause 60.8% 2258 12-15-18
44 Groudon199 58.9% 2365 12-15-18
45 AxlThunder 58.3% 2400 12-15-18
45 Game_Complete 58.3% 2400 12-15-18
47 Shadow Jacky 58.2% 2404 12-15-18
48 VMU Player Banned 57.4% 2454 12-15-18
49 Thorn 56.9% 2478 12-15-18
50 SB737 55.9% 2538 12-15-18
51 The Knuckles Chao 55.8% 2545 12-15-18
52 Chao_Fan 55.4% 2566 12-15-18
52 SadisticMystic 55.4% 2566 12-15-18
54 Mastakirby 55.1% 2582 12-15-18
54 Parax 55.1% 2582 12-15-18
56 KinkyCadence 54.3% 2628 12-15-18
57 LittleBigness 54.3% 2629 12-15-18
58 OmegaDJ 54.3% 2630 12-15-18
59 mauserman 54.2% 2637 12-15-18
60 Psyknux 54.0% 2650 12-15-18
61 Auriman1 53.7% 2663 12-15-18
62 magnum12 53.6% 2672 12-15-18
63 Turbos 53.2% 2692 12-15-18
64 GerbilSoft 52.5% 2733 12-15-18
65 GreatStar 52.4% 2742 12-15-18
66 Webber3000 52.0% 2765 12-15-18
67 Hipertails12 51.1% 2817 12-15-18
68 N 50.9% 2829 12-15-18
69 James_Bertolli 48.8% 2946 12-15-18
70 Cream147 48.4% 2968 12-15-18
71 welldooder64 47.9% 3000 12-15-18
72 Skylace 47.8% 3005 12-15-18
73 Omega Rafael Santos 47.4% 3029 12-15-18
74 Quartz 47.3% 3031 12-15-18
75 Psymar 47.1% 3045 12-15-18
76 Diamond 47.0% 3053 12-15-18
77 SonicWinDX 46.3% 3092 12-15-18
78 teamblackarms 46.1% 3105 12-15-18
79 Cyan Ryan 45.4% 3141 12-15-18
80 Andrea Ritsu 45.4% 3142 12-15-18
81 buddychaos0415 45.1% 3163 12-15-18
82 SilverSonic 44.6% 3190 12-15-18
83 paulie9990 44.5% 3196 12-15-18
84 SilvertheAlmighty 43.9% 3227 12-15-18
85 WeegeeZV 43.5% 3253 12-15-18
86 itsPersonnal 43.5% 3254 12-15-18
87 metanightmare22 43.3% 3265 12-15-18
88 lordmetalsonic 41.1% 3390 12-15-18
89 Arch 40.6% 3420 12-15-18
90 videogamemaster777 39.8% 3465 12-15-18
91 Termon 39.7% 3470 12-15-18
92 supersonicfan 39.3% 3492 12-15-18
93 Drakodan 38.8% 3524 12-15-18
94 LilZero 38.7% 3532 12-15-18
95 Kanimayo_Jp 38.6% 3537 12-15-18
96 supersonic465 38.4% 3549 12-15-18
97 FuzZerd 38.3% 3553 12-15-18
98 JamminX42 37.7% 3584 12-15-18
99 eggFL 37.7% 3588 12-15-18
100 BigAL49 37.4% 3602 12-15-18
101 danieldude 37.0% 3628 12-15-18
102 Don 36.8% 3638 12-15-18
103 Siavash Tazari 36.2% 3676 12-15-18
104 Fr3nZy 35.7% 3703 12-15-18
105 f0rever_zer0 35.3% 3728 12-15-18
106 Cod4Scopes 34.8% 3754 12-15-18
107 LinksDarkArrows 34.2% 3789 12-15-18
108 Therio 33.8% 3812 12-15-18
109 Austinf 33.5% 3831 12-15-18
110 elecmouse101 33.4% 3836 12-15-18
111 Staf 33.1% 3853 12-15-18
112 MiStEr_ShAoLiN 32.7% 3875 12-15-18
113 Twilisailor 32.6% 3881 12-15-18
114 ModifiedMonkee 32.1% 3907 12-15-18
114 videogamer1014 32.1% 3907 12-15-18
116 R3FR4G 32.1% 3911 12-15-18
117 BrokenArthritis 32.0% 3918 12-15-18
118 Xia 31.7% 3930 12-15-18
119 AC-Tygo 31.5% 3945 12-15-18
120 welshmoose05 31.3% 3954 12-15-18
121 OddCook 30.6% 3994 12-15-18
122 The Great Lord Mick 30.3% 4011 12-15-18
123 Aitamen 29.9% 4034 12-15-18
124 Maxinfamily 29.6% 4051 12-15-18
125 Mcshuggets 29.6% 4053 12-15-18
126 Matt_TY 29.4% 4064 12-15-18
127 dabestgamer 29.2% 4077 12-15-18
128 joecoolgames 29.0% 4091 12-15-18
129 SuperBlitzCraig 28.5% 4117 12-15-18
130 Irregular Zero 28.4% 4124 12-15-18
131 CoEmpathy 28.0% 4147 12-15-18
132 Shadowthegreat 27.8% 4155 12-15-18
133 superjupi 27.8% 4157 12-15-18
134 SuperSonic101 27.6% 4171 12-15-18
135 Rolken 27.5% 4177 12-15-18
136 sonamyfan666 26.9% 4209 12-15-18
137 thewaytodawnnn 26.9% 4210 12-15-18
138 koinu93 26.8% 4215 12-15-18
139 Hunters13 26.6% 4224 12-15-18
140 Spinballwizard 26.6% 4226 12-15-18
141 iarebored 26.6% 4227 12-15-18
142 SonicKnuckles 26.6% 4229 12-15-18
143 SaviourDC 26.3% 4244 12-15-18
144 EngiNerd 25.5% 4291 12-15-18
145 adf 25.4% 4298 12-15-18
146 Megaman EXE565 24.7% 4338 12-15-18
147 The T 24.5% 4349 12-15-18
148 Sonic Singularity 23.9% 4381 12-15-18
149 timpkmn89 23.3% 4419 12-15-18
150 Platformer 23.2% 4420 12-15-18
151 SeaWolf 23.0% 4435 12-15-18
152 Pokemonmaster888 22.9% 4438 12-15-18
153 Sondow 22.5% 4463 12-15-18
154 Swift Hobo 22.5% 4465 12-15-18
155 KitsuneYamaro 21.8% 4502 12-15-18
156 Rickyman48 21.7% 4507 12-15-18
157 FoxBoy 21.4% 4525 12-15-18
158 Kogen Player Banned 21.0% 4549 12-15-18
159 Sm4sh 20.8% 4559 12-15-18
160 TFEC Headshot 20.7% 4564 12-15-18
161 Jerzia 20.5% 4578 12-15-18
162 Starlight Sable 19.9% 4612 12-15-18
163 HyperSonic64 19.9% 4614 12-15-18
164 IsisDazs 19.4% 4643 12-15-18
165 andres430 19.4% 4644 12-15-18
166 crazy1993 19.3% 4647 12-15-18
167 Powerjohn25 19.1% 4659 12-15-18
168 SonicU260 18.3% 4703 12-15-18
169 MPit08 18.0% 4722 12-15-18
170 SonicAD 17.5% 4751 12-15-18
171 iSonicKid2K 17.4% 4756 12-15-18
172 Swinkly 17.4% 4758 12-15-18
173 dShadow 17.2% 4769 12-15-18
174 sonicd5 17.1% 4772 12-15-18
175 Cutiefox 16.8% 4792 12-15-18
176 Chawkk 16.7% 4796 12-15-18
177 Monkeh 16.3% 4820 12-15-18
178 Miles9999 15.9% 4841 12-15-18
179 Crispian 15.7% 4853 12-15-18
180 Bass 15.3% 4880 12-15-18
181 DaDude 15.2% 4883 12-15-18
182 Cruizer 15.2% 4884 12-15-18
183 Destroyer121121 15.1% 4889 12-15-18
184 Drflash55 15.1% 4890 12-15-18
185 superiorsonic 14.8% 4904 12-15-18
186 Badlex727 14.7% 4912 12-15-18
187 neaolas 14.4% 4927 12-15-18
188 zapp 14.4% 4930 12-15-18
189 Yish 14.3% 4936 12-15-18
190 UninspiredUsername 14.1% 4948 12-15-18
191 Cooljay 13.9% 4961 12-15-18
192 gamefreak1292 13.7% 4967 12-15-18
193 Sora_yx 13.2% 4997 12-15-18
194 GarnetPrincess 13.0% 5012 12-15-18
195 Chaos_Overlord 12.8% 5023 12-15-18
196 Valfore 12.3% 5049 12-15-18
197 soniccoloursunleashed 12.0% 5069 12-15-18
198 Dage4Aquatic 11.9% 5074 12-15-18
199 booo95 11.7% 5084 12-15-18
200 ShinigamiMachine 11.7% 5085 12-15-18
201 sonicspeed 11.3% 5106 12-15-18
202 Sonicsuperstar1 11.2% 5111 12-15-18
203 SirTobbii 10.9% 5129 12-15-18
204 Werey 10.8% 5136 12-15-18
205 FocusSight64 10.8% 5138 12-15-18
206 Mo Player Banned 10.6% 5148 12-15-18
207 Jua Rever 10.6% 5150 12-15-18
208 Venick409 9.6% 5205 12-15-18
209 Sithwarrior26 9.6% 5208 12-15-18
210 nman36 9.5% 5210 12-15-18
211 dekki1234 9.0% 5238 12-15-18
211 ingx24 9.0% 5238 12-15-18
213 CyberShadow 9.0% 5241 12-15-18
214 Colomb_30 8.6% 5261 12-15-18
215 Fozer 8.6% 5262 12-15-18
216 douglas 8.5% 5272 12-15-18
216 Egor305 8.5% 5272 12-15-18
218 Regano1000 8.3% 5282 12-15-18
219 1stKirbyever 8.0% 5296 12-15-18
220 nuckrieg 7.9% 5302 12-15-18
221 wheatrich 7.9% 5304 12-15-18
222 TimTH 7.7% 5313 12-15-18
223 Brian_pso 7.7% 5317 12-15-18
224 Zip 7.5% 5328 12-15-18
225 niscool 7.4% 5330 12-15-18
226 Th4tN1nj4Turtl3 7.4% 5334 12-15-18
227 TakaRikka 7.3% 5337 12-15-18
228 Triseena 7.1% 5349 12-15-18
229 Mariosonic15 7.0% 5357 12-15-18
230 ieatatsonic 6.7% 5372 12-15-18
231 MStitomix 6.7% 5375 12-15-18
232 Artie 6.6% 5379 12-15-18
232 HermitHelmet 6.6% 5379 12-15-18
234 Cort_pso 6.3% 5398 12-15-18
235 Got4n 6.2% 5400 12-15-18
236 BlankTH 6.1% 5405 12-15-18
237 Jose_15 5.9% 5417 12-15-18
238 Richied 5.8% 5427 12-15-18
239 SuperSonicfan9595 5.7% 5431 12-15-18
240 Ace747 5.5% 5442 12-15-18
241 HHNNBBHHN 5.4% 5448 12-15-18
242 Aiko 5.3% 5456 12-15-18
243 Paixii 5.2% 5458 12-15-18
244 slade23 5.0% 5471 12-15-18
245 Mankster101 5.0% 5472 12-15-18
246 BallzeH 4.9% 5477 12-15-18
247 FSSRandomvids 4.8% 5480 12-15-18
248 BecauseWarAnvil 4.8% 5481 12-15-18
249 ArcticDragon 4.8% 5482 12-15-18
250 PsyBorg 4.8% 5483 12-15-18
251 Jamixesa 4.7% 5488 12-15-18
252 Nickson98 4.6% 5492 12-15-18
253 Crydio 4.5% 5500 12-15-18
254 TheUltraBlur 4.4% 5505 12-15-18
255 Zurggriff 4.4% 5506 12-15-18
256 ALundstrom10 4.3% 5513 12-15-18
257 MarewBFN 4.2% 5516 12-15-18
257 tal39h 4.2% 5516 12-15-18
259 stanski 4.2% 5519 12-15-18
260 knuckles_sonic8 3.9% 5532 12-15-18
261 Blue Infamy 3.9% 5535 12-15-18
262 p0ker 3.9% 5536 12-15-18
263 ErrortheCucco 3.7% 5546 12-15-18
264 Rikum22 3.6% 5549 12-15-18
265 sonic1001 3.5% 5557 12-15-18
266 TheChaosEmeraIds 3.5% 5560 12-15-18
267 syco1098 3.4% 5564 12-15-18
268 AJSIV 3.4% 5565 12-15-18
269 Sonic the Hedgehod16 3.3% 5568 12-15-18
270 ASINISTERTACO 3.2% 5575 12-15-18
271 sonicfan9 3.1% 5582 12-15-18
272 MK 3.0% 5589 12-15-18
273 themachoman202 2.9% 5591 12-15-18
274 Fivavoa 2.8% 5600 12-15-18
275 Mr. Jones 2.7% 5602 12-15-18
276 BlackArmsShadow 2.7% 5604 12-15-18
276 djmat 2.7% 5604 12-15-18
278 arcfx1985 2.7% 5605 12-15-18
279 ptorflaxendrosis 2.6% 5608 12-15-18
280 Sonique Hedgehog 2.6% 5609 12-15-18
281 FlandreScarlet9999vr 2.5% 5613 12-15-18
282 Zeldocto 2.5% 5615 12-15-18
283 KaM Mark MaK 2.4% 5618 12-15-18
284 BeeAwwb 2.4% 5620 12-15-18
285 ShadouZaHejjihoggu 2.3% 5626 12-15-18
286 darkstarblaze 2.3% 5627 12-15-18
286 Sarger001 2.3% 5627 12-15-18
288 Sonic The Star 2.2% 5634 12-15-18
289 darkersupershadic 2.2% 5635 12-15-18
290 SpiritDragon1995 2.1% 5636 12-15-18
291 BioShadow 2.1% 5637 12-15-18
292 sonic29887 2.0% 5641 12-15-18
293 Grady219 2.0% 5643 12-15-18
294 shadowblast63 Player Banned 1.9% 5648 12-15-18
295 Jawaah 1.9% 5649 12-15-18
296 Antek 1.9% 5652 12-15-18
297 Klaus 1.8% 5654 12-15-18
297 SkyBon 1.8% 5654 12-15-18
299 Shanekilz 1.4% 5676 12-15-18
300 isaihtb11 1.4% 5680 12-15-18
301 zaktu40 1.3% 5682 12-15-18
302 OhNoes! 1.3% 5683 12-15-18
303 gaara1234 1.3% 5685 12-15-18
304 S-MS32X-S 1.2% 5689 12-15-18
305 MastaToken 1.2% 5692 12-15-18
306 Mister_Slick 1.0% 5699 12-15-18
307 ArthurVGCP 1.0% 5700 12-15-18
308 Rush Hero 1.0% 5702 12-15-18
308 Sonic06Fan 1.0% 5702 12-15-18
310 ChaosNexuss 1.0% 5703 12-15-18
311 SonicMega167 0.9% 5708 12-15-18
312 oTaiIilLsS 0.9% 5710 12-15-18
313 gamed00d 0.8% 5711 12-15-18
313 SilverK 0.8% 5711 12-15-18
315 Heroes_Hater 0.8% 5715 12-15-18
316 Redd 0.6% 5722 12-15-18
317 Burningskull123 0.6% 5727 12-15-18
318 Sonicontherun 0.4% 5738 12-15-18
319 antiwwe 0.3% 5744 12-15-18
320 Genuine Hedgehog 0.2% 5747 12-15-18
320 Iwannabelink 0.2% 5747 12-15-18
322 SonataSpinDash 0.2% 5748 12-15-18
323 dragondragon18 0.2% 5750 12-15-18
324 SonicK100 0.1% 5752 12-15-18
325 Tyrouble 0.0% 5759 12-15-18
326 LancexExWx 0.0% 5762 12-15-18
326 neji_hyuuga 0.0% 5762 12-15-18
326 Over 0.0% 5762 12-15-18
326 sdj6707 Player Banned 0.0% 5762 12-15-18
326 Tran Sonic Fan Player Banned 0.0% 5762 12-15-18

This page is using the New Data Table System. [FUTURE]

Game ID: 3 | Category ID: 1
Hits: 2,591 | Hits This Month: 15 | DB Calls: 25 | Mem Usage: 5.88 MB | Time: 0.13s | Printable

The Sonic Center v3.9
Copyright 2003-2011 by The Sonic Center Team.